sensor_id;sensor_type;location;lat;lon;timestamp;P1;durP1;ratioP1;P2;durP2;ratioP2
24663;SDS011;12791;50.992;13.788;2023-06-14T00:01:13;3.83;;;1.50;;
24663;SDS011;12791;50.992;13.788;2023-06-14T00:03:40;2.42;;;2.22;;
24663;SDS011;12791;50.992;13.788;2023-06-14T00:06:06;2.60;;;1.77;;
24663;SDS011;12791;50.992;13.788;2023-06-14T00:08:33;1.75;;;1.65;;
24663;SDS011;12791;50.992;13.788;2023-06-14T00:11:00;2.35;;;1.88;;
24663;SDS011;12791;50.992;13.788;2023-06-14T00:13:26;2.13;;;2.00;;
24663;SDS011;12791;50.992;13.788;2023-06-14T00:15:54;3.85;;;1.92;;
24663;SDS011;12791;50.992;13.788;2023-06-14T00:18:21;2.13;;;1.98;;
24663;SDS011;12791;50.992;13.788;2023-06-14T00:20:49;2.20;;;2.00;;
24663;SDS011;12791;50.992;13.788;2023-06-14T00:23:16;1.67;;;1.58;;
24663;SDS011;12791;50.992;13.788;2023-06-14T00:25:42;1.55;;;1.45;;
24663;SDS011;12791;50.992;13.788;2023-06-14T00:28:09;1.90;;;1.80;;
24663;SDS011;12791;50.992;13.788;2023-06-14T00:30:35;1.83;;;1.73;;
24663;SDS011;12791;50.992;13.788;2023-06-14T00:33:03;2.25;;;1.80;;
24663;SDS011;12791;50.992;13.788;2023-06-14T00:35:30;1.70;;;1.60;;
24663;SDS011;12791;50.992;13.788;2023-06-14T00:37:57;1.83;;;1.70;;
24663;SDS011;12791;50.992;13.788;2023-06-14T00:40:24;1.60;;;1.50;;
24663;SDS011;12791;50.992;13.788;2023-06-14T00:42:51;1.85;;;1.70;;
24663;SDS011;12791;50.992;13.788;2023-06-14T00:45:17;3.25;;;2.08;;
24663;SDS011;12791;50.992;13.788;2023-06-14T00:47:44;3.15;;;1.95;;
24663;SDS011;12791;50.992;13.788;2023-06-14T00:50:13;2.25;;;2.08;;
24663;SDS011;12791;50.992;13.788;2023-06-14T00:52:40;1.98;;;1.77;;
24663;SDS011;12791;50.992;13.788;2023-06-14T00:55:07;1.80;;;1.70;;
24663;SDS011;12791;50.992;13.788;2023-06-14T00:57:34;2.55;;;2.00;;
24663;SDS011;12791;50.992;13.788;2023-06-14T01:00:03;1.92;;;1.83;;
24663;SDS011;12791;50.992;13.788;2023-06-14T01:02:33;1.60;;;1.50;;
24663;SDS011;12791;50.992;13.788;2023-06-14T01:05:01;1.95;;;1.65;;
24663;SDS011;12791;50.992;13.788;2023-06-14T01:07:32;3.55;;;1.80;;
24663;SDS011;12791;50.992;13.788;2023-06-14T01:10:12;2.45;;;2.00;;
24663;SDS011;12791;50.992;13.788;2023-06-14T01:12:53;2.13;;;1.90;;
24663;SDS011;12791;50.992;13.788;2023-06-14T01:15:25;2.92;;;1.92;;
24663;SDS011;12791;50.992;13.788;2023-06-14T01:17:53;1.98;;;1.85;;
24663;SDS011;12791;50.992;13.788;2023-06-14T01:20:28;2.85;;;1.98;;
24663;SDS011;12791;50.992;13.788;2023-06-14T01:22:57;3.28;;;2.25;;
24663;SDS011;12791;50.992;13.788;2023-06-14T01:25:24;1.83;;;1.73;;
24663;SDS011;12791;50.992;13.788;2023-06-14T01:27:52;1.92;;;1.80;;
24663;SDS011;12791;50.992;13.788;2023-06-14T01:30:21;2.53;;;2.28;;
24663;SDS011;12791;50.992;13.788;2023-06-14T01:32:50;3.50;;;2.28;;
24663;SDS011;12791;50.992;13.788;2023-06-14T01:35:18;1.70;;;1.60;;
24663;SDS011;12791;50.992;13.788;2023-06-14T01:37:45;1.67;;;1.58;;
24663;SDS011;12791;50.992;13.788;2023-06-14T01:40:15;1.73;;;1.63;;
24663;SDS011;12791;50.992;13.788;2023-06-14T01:42:45;2.47;;;1.92;;
24663;SDS011;12791;50.992;13.788;2023-06-14T01:45:13;2.03;;;1.92;;
24663;SDS011;12791;50.992;13.788;2023-06-14T01:47:41;1.98;;;1.88;;
24663;SDS011;12791;50.992;13.788;2023-06-14T01:50:08;2.30;;;2.10;;
24663;SDS011;12791;50.992;13.788;2023-06-14T01:52:36;2.28;;;2.08;;
24663;SDS011;12791;50.992;13.788;2023-06-14T01:55:03;2.35;;;1.75;;
24663;SDS011;12791;50.992;13.788;2023-06-14T01:57:31;3.53;;;2.08;;
24663;SDS011;12791;50.992;13.788;2023-06-14T01:59:58;2.03;;;1.85;;
24663;SDS011;12791;50.992;13.788;2023-06-14T02:02:24;2.05;;;1.85;;
24663;SDS011;12791;50.992;13.788;2023-06-14T02:04:51;3.70;;;2.10;;
24663;SDS011;12791;50.992;13.788;2023-06-14T02:07:17;3.03;;;2.20;;
24663;SDS011;12791;50.992;13.788;2023-06-14T02:09:44;2.97;;;1.95;;
24663;SDS011;12791;50.992;13.788;2023-06-14T02:12:11;3.15;;;1.85;;
24663;SDS011;12791;50.992;13.788;2023-06-14T02:14:38;2.45;;;2.25;;
24663;SDS011;12791;50.992;13.788;2023-06-14T02:17:05;2.40;;;2.20;;
24663;SDS011;12791;50.992;13.788;2023-06-14T02:19:32;2.30;;;2.20;;
24663;SDS011;12791;50.992;13.788;2023-06-14T02:21:59;2.15;;;2.00;;
24663;SDS011;12791;50.992;13.788;2023-06-14T02:24:26;2.53;;;2.33;;
24663;SDS011;12791;50.992;13.788;2023-06-14T02:26:52;2.40;;;2.22;;
24663;SDS011;12791;50.992;13.788;2023-06-14T02:29:19;2.45;;;2.25;;
24663;SDS011;12791;50.992;13.788;2023-06-14T02:31:47;2.50;;;2.30;;
24663;SDS011;12791;50.992;13.788;2023-06-14T02:34:14;2.58;;;2.38;;
24663;SDS011;12791;50.992;13.788;2023-06-14T02:36:42;2.60;;;2.40;;
24663;SDS011;12791;50.992;13.788;2023-06-14T02:39:09;2.35;;;2.15;;
24663;SDS011;12791;50.992;13.788;2023-06-14T02:41:36;2.45;;;2.25;;
24663;SDS011;12791;50.992;13.788;2023-06-14T02:44:03;2.90;;;2.58;;
24663;SDS011;12791;50.992;13.788;2023-06-14T02:46:30;2.35;;;2.25;;
24663;SDS011;12791;50.992;13.788;2023-06-14T02:48:58;2.67;;;2.47;;
24663;SDS011;12791;50.992;13.788;2023-06-14T02:51:24;2.67;;;2.47;;
24663;SDS011;12791;50.992;13.788;2023-06-14T02:53:51;2.40;;;2.30;;
24663;SDS011;12791;50.992;13.788;2023-06-14T02:56:18;2.20;;;2.00;;
24663;SDS011;12791;50.992;13.788;2023-06-14T02:58:44;2.60;;;2.40;;
24663;SDS011;12791;50.992;13.788;2023-06-14T03:01:11;2.33;;;2.13;;
24663;SDS011;12791;50.992;13.788;2023-06-14T03:03:38;2.63;;;2.42;;
24663;SDS011;12791;50.992;13.788;2023-06-14T03:06:05;2.67;;;2.35;;
24663;SDS011;12791;50.992;13.788;2023-06-14T03:08:33;2.63;;;2.47;;
24663;SDS011;12791;50.992;13.788;2023-06-14T03:11:03;4.47;;;2.30;;
24663;SDS011;12791;50.992;13.788;2023-06-14T03:13:31;4.03;;;2.72;;
24663;SDS011;12791;50.992;13.788;2023-06-14T03:15:58;3.90;;;2.63;;
24663;SDS011;12791;50.992;13.788;2023-06-14T03:18:25;2.85;;;2.55;;
24663;SDS011;12791;50.992;13.788;2023-06-14T03:20:52;4.95;;;2.78;;
24663;SDS011;12791;50.992;13.788;2023-06-14T03:23:20;2.35;;;2.20;;
24663;SDS011;12791;50.992;13.788;2023-06-14T03:25:47;3.55;;;2.60;;
24663;SDS011;12791;50.992;13.788;2023-06-14T03:28:13;4.25;;;2.50;;
24663;SDS011;12791;50.992;13.788;2023-06-14T03:30:40;3.95;;;2.63;;
24663;SDS011;12791;50.992;13.788;2023-06-14T03:33:06;2.40;;;2.20;;
24663;SDS011;12791;50.992;13.788;2023-06-14T03:35:33;2.80;;;2.50;;
24663;SDS011;12791;50.992;13.788;2023-06-14T03:38:00;2.75;;;2.55;;
24663;SDS011;12791;50.992;13.788;2023-06-14T03:40:29;2.72;;;2.50;;
24663;SDS011;12791;50.992;13.788;2023-06-14T03:42:56;2.63;;;2.42;;
24663;SDS011;12791;50.992;13.788;2023-06-14T03:45:22;2.90;;;2.70;;
24663;SDS011;12791;50.992;13.788;2023-06-14T03:47:49;10.82;;;2.70;;
24663;SDS011;12791;50.992;13.788;2023-06-14T03:50:16;3.10;;;2.78;;
24663;SDS011;12791;50.992;13.788;2023-06-14T03:52:43;3.35;;;2.60;;
24663;SDS011;12791;50.992;13.788;2023-06-14T03:55:11;3.33;;;3.08;;
24663;SDS011;12791;50.992;13.788;2023-06-14T03:57:40;2.83;;;2.05;;
24663;SDS011;12791;50.992;13.788;2023-06-14T04:00:07;2.85;;;2.70;;
24663;SDS011;12791;50.992;13.788;2023-06-14T04:02:36;2.97;;;2.72;;
24663;SDS011;12791;50.992;13.788;2023-06-14T04:05:02;3.55;;;2.80;;
24663;SDS011;12791;50.992;13.788;2023-06-14T04:07:30;3.25;;;2.80;;
24663;SDS011;12791;50.992;13.788;2023-06-14T04:09:57;2.65;;;2.45;;
24663;SDS011;12791;50.992;13.788;2023-06-14T04:12:23;2.85;;;2.65;;
24663;SDS011;12791;50.992;13.788;2023-06-14T04:14:51;2.53;;;2.42;;
24663;SDS011;12791;50.992;13.788;2023-06-14T04:17:18;4.20;;;2.88;;
24663;SDS011;12791;50.992;13.788;2023-06-14T04:19:44;3.05;;;2.85;;
24663;SDS011;12791;50.992;13.788;2023-06-14T04:22:12;3.85;;;2.70;;
24663;SDS011;12791;50.992;13.788;2023-06-14T04:24:39;3.13;;;2.80;;
24663;SDS011;12791;50.992;13.788;2023-06-14T04:27:07;2.95;;;2.75;;
24663;SDS011;12791;50.992;13.788;2023-06-14T04:29:34;3.30;;;3.03;;
24663;SDS011;12791;50.992;13.788;2023-06-14T04:32:02;2.85;;;2.60;;
24663;SDS011;12791;50.992;13.788;2023-06-14T04:34:30;2.85;;;2.65;;
24663;SDS011;12791;50.992;13.788;2023-06-14T04:36:59;4.18;;;3.42;;
24663;SDS011;12791;50.992;13.788;2023-06-14T04:39:26;3.20;;;3.00;;
24663;SDS011;12791;50.992;13.788;2023-06-14T04:41:53;3.00;;;2.80;;
24663;SDS011;12791;50.992;13.788;2023-06-14T04:44:21;3.78;;;3.47;;
24663;SDS011;12791;50.992;13.788;2023-06-14T04:46:56;3.35;;;3.03;;
24663;SDS011;12791;50.992;13.788;2023-06-14T04:49:25;3.08;;;2.75;;
24663;SDS011;12791;50.992;13.788;2023-06-14T04:51:52;3.55;;;3.28;;
24663;SDS011;12791;50.992;13.788;2023-06-14T04:54:22;4.80;;;4.18;;
24663;SDS011;12791;50.992;13.788;2023-06-14T04:56:49;4.25;;;3.60;;
24663;SDS011;12791;50.992;13.788;2023-06-14T04:59:16;3.58;;;3.38;;
24663;SDS011;12791;50.992;13.788;2023-06-14T05:01:43;4.20;;;3.90;;
24663;SDS011;12791;50.992;13.788;2023-06-14T05:04:12;4.53;;;3.75;;
24663;SDS011;12791;50.992;13.788;2023-06-14T05:06:41;5.75;;;4.20;;
24663;SDS011;12791;50.992;13.788;2023-06-14T05:09:09;5.65;;;4.07;;
24663;SDS011;12791;50.992;13.788;2023-06-14T05:11:36;4.20;;;3.80;;
24663;SDS011;12791;50.992;13.788;2023-06-14T05:14:02;4.43;;;4.03;;
24663;SDS011;12791;50.992;13.788;2023-06-14T05:16:29;4.22;;;3.92;;
24663;SDS011;12791;50.992;13.788;2023-06-14T05:18:56;4.57;;;4.20;;
24663;SDS011;12791;50.992;13.788;2023-06-14T05:21:23;4.82;;;3.85;;
24663;SDS011;12791;50.992;13.788;2023-06-14T05:23:51;3.55;;;3.28;;
24663;SDS011;12791;50.992;13.788;2023-06-14T05:26:19;6.47;;;5.55;;
24663;SDS011;12791;50.992;13.788;2023-06-14T05:28:45;6.28;;;5.13;;
24663;SDS011;12791;50.992;13.788;2023-06-14T05:31:12;5.13;;;4.63;;
24663;SDS011;12791;50.992;13.788;2023-06-14T05:33:39;4.28;;;3.90;;
24663;SDS011;12791;50.992;13.788;2023-06-14T05:36:05;5.40;;;5.00;;
24663;SDS011;12791;50.992;13.788;2023-06-14T05:38:32;5.35;;;4.82;;
24663;SDS011;12791;50.992;13.788;2023-06-14T05:41:00;6.18;;;5.20;;
24663;SDS011;12791;50.992;13.788;2023-06-14T05:43:27;5.15;;;4.65;;
24663;SDS011;12791;50.992;13.788;2023-06-14T05:45:53;6.57;;;5.95;;
24663;SDS011;12791;50.992;13.788;2023-06-14T05:48:20;6.10;;;4.82;;
24663;SDS011;12791;50.992;13.788;2023-06-14T05:50:46;6.03;;;5.45;;
24663;SDS011;12791;50.992;13.788;2023-06-14T05:53:13;5.30;;;4.65;;
24663;SDS011;12791;50.992;13.788;2023-06-14T05:55:40;5.13;;;4.72;;
24663;SDS011;12791;50.992;13.788;2023-06-14T05:58:08;5.28;;;4.88;;
24663;SDS011;12791;50.992;13.788;2023-06-14T06:00:35;5.30;;;4.80;;
24663;SDS011;12791;50.992;13.788;2023-06-14T06:03:02;8.55;;;5.25;;
24663;SDS011;12791;50.992;13.788;2023-06-14T06:05:29;5.00;;;4.60;;
24663;SDS011;12791;50.992;13.788;2023-06-14T06:07:55;4.45;;;4.15;;
24663;SDS011;12791;50.992;13.788;2023-06-14T06:10:22;5.47;;;4.97;;
24663;SDS011;12791;50.992;13.788;2023-06-14T06:12:48;5.18;;;4.78;;
24663;SDS011;12791;50.992;13.788;2023-06-14T06:15:18;5.22;;;4.80;;
24663;SDS011;12791;50.992;13.788;2023-06-14T06:17:45;6.13;;;5.22;;
24663;SDS011;12791;50.992;13.788;2023-06-14T06:20:11;5.30;;;4.60;;
24663;SDS011;12791;50.992;13.788;2023-06-14T06:22:38;5.55;;;4.90;;
24663;SDS011;12791;50.992;13.788;2023-06-14T06:25:05;7.35;;;4.90;;
24663;SDS011;12791;50.992;13.788;2023-06-14T06:27:33;7.03;;;5.43;;
24663;SDS011;12791;50.992;13.788;2023-06-14T06:30:00;5.60;;;4.65;;
24663;SDS011;12791;50.992;13.788;2023-06-14T06:32:29;4.40;;;4.00;;
24663;SDS011;12791;50.992;13.788;2023-06-14T06:34:56;5.32;;;4.32;;
24663;SDS011;12791;50.992;13.788;2023-06-14T06:37:24;4.88;;;4.43;;
24663;SDS011;12791;50.992;13.788;2023-06-14T06:39:51;4.97;;;4.57;;
24663;SDS011;12791;50.992;13.788;2023-06-14T06:42:18;8.05;;;6.32;;
24663;SDS011;12791;50.992;13.788;2023-06-14T06:44:45;5.97;;;5.38;;
24663;SDS011;12791;50.992;13.788;2023-06-14T06:47:11;5.55;;;5.05;;
24663;SDS011;12791;50.992;13.788;2023-06-14T06:49:39;4.88;;;4.47;;
24663;SDS011;12791;50.992;13.788;2023-06-14T06:52:06;5.78;;;5.32;;
24663;SDS011;12791;50.992;13.788;2023-06-14T06:54:33;4.97;;;4.53;;
24663;SDS011;12791;50.992;13.788;2023-06-14T06:57:00;5.47;;;4.97;;
24663;SDS011;12791;50.992;13.788;2023-06-14T06:59:27;6.22;;;5.63;;
24663;SDS011;12791;50.992;13.788;2023-06-14T07:01:54;7.43;;;5.88;;
24663;SDS011;12791;50.992;13.788;2023-06-14T07:04:21;5.72;;;5.32;;
24663;SDS011;12791;50.992;13.788;2023-06-14T07:06:48;6.53;;;5.65;;
24663;SDS011;12791;50.992;13.788;2023-06-14T07:09:15;5.22;;;4.82;;
24663;SDS011;12791;50.992;13.788;2023-06-14T07:11:43;5.43;;;4.93;;
24663;SDS011;12791;50.992;13.788;2023-06-14T07:14:10;4.78;;;4.38;;
24663;SDS011;12791;50.992;13.788;2023-06-14T07:16:37;6.30;;;5.70;;
24663;SDS011;12791;50.992;13.788;2023-06-14T07:19:06;5.45;;;4.95;;
24663;SDS011;12791;50.992;13.788;2023-06-14T07:21:32;5.65;;;5.25;;
24663;SDS011;12791;50.992;13.788;2023-06-14T07:24:00;4.97;;;4.57;;
24663;SDS011;12791;50.992;13.788;2023-06-14T07:26:27;8.27;;;6.13;;
24663;SDS011;12791;50.992;13.788;2023-06-14T07:28:54;6.20;;;5.40;;
24663;SDS011;12791;50.992;13.788;2023-06-14T07:31:20;6.22;;;5.63;;
24663;SDS011;12791;50.992;13.788;2023-06-14T07:33:47;5.50;;;4.97;;
24663;SDS011;12791;50.992;13.788;2023-06-14T07:36:13;5.15;;;4.72;;
24663;SDS011;12791;50.992;13.788;2023-06-14T07:38:40;5.25;;;4.85;;
24663;SDS011;12791;50.992;13.788;2023-06-14T07:41:08;5.72;;;5.22;;
24663;SDS011;12791;50.992;13.788;2023-06-14T07:43:34;6.68;;;5.13;;
24663;SDS011;12791;50.992;13.788;2023-06-14T07:46:01;6.80;;;5.93;;
24663;SDS011;12791;50.992;13.788;2023-06-14T07:48:28;6.28;;;5.65;;
24663;SDS011;12791;50.992;13.788;2023-06-14T07:50:54;5.50;;;5.00;;
24663;SDS011;12791;50.992;13.788;2023-06-14T07:53:21;4.95;;;4.47;;
24663;SDS011;12791;50.992;13.788;2023-06-14T07:55:48;5.55;;;5.13;;
24663;SDS011;12791;50.992;13.788;2023-06-14T07:58:16;7.22;;;5.53;;
24663;SDS011;12791;50.992;13.788;2023-06-14T08:00:43;5.90;;;4.95;;
24663;SDS011;12791;50.992;13.788;2023-06-14T08:03:11;7.07;;;4.90;;
24663;SDS011;12791;50.992;13.788;2023-06-14T08:05:37;7.68;;;6.05;;
24663;SDS011;12791;50.992;13.788;2023-06-14T08:08:04;7.97;;;3.92;;
24663;SDS011;12791;50.992;13.788;2023-06-14T08:10:30;3.92;;;3.28;;
24663;SDS011;12791;50.992;13.788;2023-06-14T08:12:57;4.47;;;2.83;;
24663;SDS011;12791;50.992;13.788;2023-06-14T08:15:25;3.25;;;2.67;;
24663;SDS011;12791;50.992;13.788;2023-06-14T08:17:51;2.83;;;2.50;;
24663;SDS011;12791;50.992;13.788;2023-06-14T08:20:18;2.20;;;2.08;;
24663;SDS011;12791;50.992;13.788;2023-06-14T08:22:45;2.90;;;2.75;;
24663;SDS011;12791;50.992;13.788;2023-06-14T08:25:13;2.53;;;2.33;;
24663;SDS011;12791;50.992;13.788;2023-06-14T08:27:39;3.05;;;2.03;;
24663;SDS011;12791;50.992;13.788;2023-06-14T08:30:06;4.15;;;2.78;;
24663;SDS011;12791;50.992;13.788;2023-06-14T08:32:36;2.90;;;2.70;;
24663;SDS011;12791;50.992;13.788;2023-06-14T08:35:03;2.38;;;2.13;;
24663;SDS011;12791;50.992;13.788;2023-06-14T08:37:32;3.45;;;1.98;;
24663;SDS011;12791;50.992;13.788;2023-06-14T08:39:59;3.28;;;2.88;;
24663;SDS011;12791;50.992;13.788;2023-06-14T08:42:25;4.80;;;2.20;;
24663;SDS011;12791;50.992;13.788;2023-06-14T08:44:52;2.33;;;2.08;;
24663;SDS011;12791;50.992;13.788;2023-06-14T08:47:19;2.15;;;2.00;;
24663;SDS011;12791;50.992;13.788;2023-06-14T08:49:48;2.92;;;2.42;;
24663;SDS011;12791;50.992;13.788;2023-06-14T08:52:15;2.70;;;2.50;;
24663;SDS011;12791;50.992;13.788;2023-06-14T08:54:45;6.30;;;2.30;;
24663;SDS011;12791;50.992;13.788;2023-06-14T08:57:14;3.88;;;2.55;;
24663;SDS011;12791;50.992;13.788;2023-06-14T08:59:46;2.75;;;2.55;;
24663;SDS011;12791;50.992;13.788;2023-06-14T09:02:17;2.65;;;2.50;;
24663;SDS011;12791;50.992;13.788;2023-06-14T09:04:48;3.38;;;2.45;;
24663;SDS011;12791;50.992;13.788;2023-06-14T09:07:15;3.80;;;2.50;;
24663;SDS011;12791;50.992;13.788;2023-06-14T09:09:42;2.58;;;2.38;;
24663;SDS011;12791;50.992;13.788;2023-06-14T09:12:09;2.75;;;2.55;;
24663;SDS011;12791;50.992;13.788;2023-06-14T09:14:37;2.97;;;2.70;;
24663;SDS011;12791;50.992;13.788;2023-06-14T09:17:06;3.35;;;2.83;;
24663;SDS011;12791;50.992;13.788;2023-06-14T09:19:33;2.78;;;2.58;;
24663;SDS011;12791;50.992;13.788;2023-06-14T09:22:02;4.57;;;2.83;;
24663;SDS011;12791;50.992;13.788;2023-06-14T09:24:29;3.30;;;3.08;;
24663;SDS011;12791;50.992;13.788;2023-06-14T09:26:56;3.78;;;3.33;;
24663;SDS011;12791;50.992;13.788;2023-06-14T09:29:23;4.93;;;3.03;;
24663;SDS011;12791;50.992;13.788;2023-06-14T09:31:51;4.18;;;3.10;;
24663;SDS011;12791;50.992;13.788;2023-06-14T09:34:18;4.50;;;3.17;;
24663;SDS011;12791;50.992;13.788;2023-06-14T09:36:48;5.13;;;3.28;;
24663;SDS011;12791;50.992;13.788;2023-06-14T09:39:17;8.35;;;3.60;;
24663;SDS011;12791;50.992;13.788;2023-06-14T09:41:44;8.68;;;4.15;;
24663;SDS011;12791;50.992;13.788;2023-06-14T09:44:11;5.07;;;3.85;;
24663;SDS011;12791;50.992;13.788;2023-06-14T09:46:38;5.38;;;4.55;;
24663;SDS011;12791;50.992;13.788;2023-06-14T09:49:05;5.32;;;4.63;;
24663;SDS011;12791;50.992;13.788;2023-06-14T09:51:32;5.05;;;4.60;;
24663;SDS011;12791;50.992;13.788;2023-06-14T09:54:00;4.95;;;4.45;;
24663;SDS011;12791;50.992;13.788;2023-06-14T09:56:37;4.43;;;3.92;;
24663;SDS011;12791;50.992;13.788;2023-06-14T09:59:06;4.20;;;3.78;;
24663;SDS011;12791;50.992;13.788;2023-06-14T10:01:41;3.45;;;3.25;;
24663;SDS011;12791;50.992;13.788;2023-06-14T10:04:09;3.40;;;3.10;;
24663;SDS011;12791;50.992;13.788;2023-06-14T10:06:37;3.38;;;3.08;;
24663;SDS011;12791;50.992;13.788;2023-06-14T10:09:07;4.25;;;3.30;;
24663;SDS011;12791;50.992;13.788;2023-06-14T10:11:36;3.55;;;3.25;;
24663;SDS011;12791;50.992;13.788;2023-06-14T10:14:08;3.63;;;3.33;;
24663;SDS011;12791;50.992;13.788;2023-06-14T10:16:37;2.67;;;2.47;;
24663;SDS011;12791;50.992;13.788;2023-06-14T10:19:11;4.18;;;2.75;;
24663;SDS011;12791;50.992;13.788;2023-06-14T10:21:46;2.95;;;2.75;;
24663;SDS011;12791;50.992;13.788;2023-06-14T10:24:22;2.35;;;2.25;;
24663;SDS011;12791;50.992;13.788;2023-06-14T10:26:57;2.80;;;2.53;;
24663;SDS011;12791;50.992;13.788;2023-06-14T10:29:26;2.40;;;2.30;;
24663;SDS011;12791;50.992;13.788;2023-06-14T10:31:57;2.05;;;1.92;;
24663;SDS011;12791;50.992;13.788;2023-06-14T10:34:25;2.17;;;2.08;;
24663;SDS011;12791;50.992;13.788;2023-06-14T10:37:00;1.95;;;1.83;;
24663;SDS011;12791;50.992;13.788;2023-06-14T10:39:30;1.98;;;1.88;;
24663;SDS011;12791;50.992;13.788;2023-06-14T10:42:01;2.22;;;2.10;;
24663;SDS011;12791;50.992;13.788;2023-06-14T10:44:39;1.60;;;1.50;;
24663;SDS011;12791;50.992;13.788;2023-06-14T10:47:07;1.63;;;1.52;;
24663;SDS011;12791;50.992;13.788;2023-06-14T10:49:36;2.83;;;1.80;;
24663;SDS011;12791;50.992;13.788;2023-06-14T10:52:07;2.97;;;1.70;;
24663;SDS011;12791;50.992;13.788;2023-06-14T10:54:54;2.67;;;2.47;;
24663;SDS011;12791;50.992;13.788;2023-06-14T10:57:39;2.08;;;1.90;;
24663;SDS011;12791;50.992;13.788;2023-06-14T11:00:07;10.05;;;3.22;;
24663;SDS011;12791;50.992;13.788;2023-06-14T11:05:25;2.33;;;2.03;;
24663;SDS011;12791;50.992;13.788;2023-06-14T11:08:14;2.95;;;2.22;;
24663;SDS011;12791;50.992;13.788;2023-06-14T11:10:52;2.03;;;1.92;;
24663;SDS011;12791;50.992;13.788;2023-06-14T11:13:24;2.75;;;1.63;;
24663;SDS011;12791;50.992;13.788;2023-06-14T11:15:51;1.90;;;1.80;;
24663;SDS011;12791;50.992;13.788;2023-06-14T11:18:21;1.92;;;1.83;;
24663;SDS011;12791;50.992;13.788;2023-06-14T11:20:49;2.03;;;1.90;;
24663;SDS011;12791;50.992;13.788;2023-06-14T11:23:16;2.50;;;2.40;;
24663;SDS011;12791;50.992;13.788;2023-06-14T11:25:42;1.77;;;1.67;;
24663;SDS011;12791;50.992;13.788;2023-06-14T11:28:09;2.38;;;2.03;;
24663;SDS011;12791;50.992;13.788;2023-06-14T11:30:37;3.55;;;3.17;;
24663;SDS011;12791;50.992;13.788;2023-06-14T11:33:04;4.45;;;3.10;;
24663;SDS011;12791;50.992;13.788;2023-06-14T11:35:35;4.18;;;3.88;;
24663;SDS011;12791;50.992;13.788;2023-06-14T11:38:02;4.00;;;3.25;;
24663;SDS011;12791;50.992;13.788;2023-06-14T11:40:29;7.93;;;4.75;;
24663;SDS011;12791;50.992;13.788;2023-06-14T11:42:59;4.20;;;3.75;;
24663;SDS011;12791;50.992;13.788;2023-06-14T11:45:26;8.55;;;4.38;;
24663;SDS011;12791;50.992;13.788;2023-06-14T11:47:55;4.25;;;3.85;;
24663;SDS011;12791;50.992;13.788;2023-06-14T11:50:23;3.70;;;3.50;;
24663;SDS011;12791;50.992;13.788;2023-06-14T11:52:52;4.00;;;3.70;;
24663;SDS011;12791;50.992;13.788;2023-06-14T11:55:19;5.30;;;3.90;;
24663;SDS011;12791;50.992;13.788;2023-06-14T11:57:46;4.32;;;3.47;;
24663;SDS011;12791;50.992;13.788;2023-06-14T12:00:13;5.93;;;3.75;;
24663;SDS011;12791;50.992;13.788;2023-06-14T12:02:41;3.50;;;3.30;;
24663;SDS011;12791;50.992;13.788;2023-06-14T12:05:09;4.85;;;3.90;;
24663;SDS011;12791;50.992;13.788;2023-06-14T12:07:36;5.18;;;3.42;;
24663;SDS011;12791;50.992;13.788;2023-06-14T12:10:05;4.00;;;3.70;;
24663;SDS011;12791;50.992;13.788;2023-06-14T12:12:34;4.45;;;3.65;;
24663;SDS011;12791;50.992;13.788;2023-06-14T12:15:02;3.85;;;3.65;;
24663;SDS011;12791;50.992;13.788;2023-06-14T12:17:31;4.68;;;4.30;;
24663;SDS011;12791;50.992;13.788;2023-06-14T12:19:58;4.32;;;3.92;;
24663;SDS011;12791;50.992;13.788;2023-06-14T12:22:27;6.03;;;4.30;;
24663;SDS011;12791;50.992;13.788;2023-06-14T12:24:55;6.13;;;4.50;;
24663;SDS011;12791;50.992;13.788;2023-06-14T12:27:22;5.55;;;4.28;;
24663;SDS011;12791;50.992;13.788;2023-06-14T12:29:58;4.00;;;3.75;;
24663;SDS011;12791;50.992;13.788;2023-06-14T12:32:25;4.05;;;3.80;;
24663;SDS011;12791;50.992;13.788;2023-06-14T12:34:52;7.15;;;4.82;;
24663;SDS011;12791;50.992;13.788;2023-06-14T12:37:18;4.82;;;4.43;;
24663;SDS011;12791;50.992;13.788;2023-06-14T12:39:46;4.45;;;4.05;;
24663;SDS011;12791;50.992;13.788;2023-06-14T12:42:13;6.43;;;4.15;;
24663;SDS011;12791;50.992;13.788;2023-06-14T12:44:40;6.30;;;4.18;;
24663;SDS011;12791;50.992;13.788;2023-06-14T12:47:07;5.85;;;3.90;;
24663;SDS011;12791;50.992;13.788;2023-06-14T12:49:34;5.22;;;4.18;;
24663;SDS011;12791;50.992;13.788;2023-06-14T12:52:00;3.40;;;3.10;;
24663;SDS011;12791;50.992;13.788;2023-06-14T12:54:27;3.40;;;3.10;;
24663;SDS011;12791;50.992;13.788;2023-06-14T12:56:55;4.72;;;3.50;;
24663;SDS011;12791;50.992;13.788;2023-06-14T12:59:22;4.00;;;3.60;;
24663;SDS011;12791;50.992;13.788;2023-06-14T13:01:48;3.25;;;3.05;;
24663;SDS011;12791;50.992;13.788;2023-06-14T13:04:15;3.50;;;3.20;;
24663;SDS011;12791;50.992;13.788;2023-06-14T13:06:42;3.55;;;3.28;;
24663;SDS011;12791;50.992;13.788;2023-06-14T13:09:08;3.90;;;3.60;;
24663;SDS011;12791;50.992;13.788;2023-06-14T13:11:36;4.50;;;3.53;;
24663;SDS011;12791;50.992;13.788;2023-06-14T13:14:04;4.78;;;3.30;;
24663;SDS011;12791;50.992;13.788;2023-06-14T13:16:31;3.65;;;3.35;;
24663;SDS011;12791;50.992;13.788;2023-06-14T13:18:58;4.13;;;3.60;;
24663;SDS011;12791;50.992;13.788;2023-06-14T13:21:25;3.53;;;3.30;;
24663;SDS011;12791;50.992;13.788;2023-06-14T13:23:51;4.80;;;2.95;;
24663;SDS011;12791;50.992;13.788;2023-06-14T13:26:18;5.65;;;3.67;;
24663;SDS011;12791;50.992;13.788;2023-06-14T13:28:45;4.28;;;3.60;;
24663;SDS011;12791;50.992;13.788;2023-06-14T13:31:13;3.15;;;2.88;;
24663;SDS011;12791;50.992;13.788;2023-06-14T13:33:39;3.78;;;3.22;;
24663;SDS011;12791;50.992;13.788;2023-06-14T13:36:07;3.55;;;3.35;;
24663;SDS011;12791;50.992;13.788;2023-06-14T13:38:35;5.90;;;2.95;;
24663;SDS011;12791;50.992;13.788;2023-06-14T13:41:01;4.30;;;3.50;;
24663;SDS011;12791;50.992;13.788;2023-06-14T13:43:28;26.08;;;7.40;;
24663;SDS011;12791;50.992;13.788;2023-06-14T13:45:55;6.85;;;4.32;;
24663;SDS011;12791;50.992;13.788;2023-06-14T13:48:23;6.28;;;4.13;;
24663;SDS011;12791;50.992;13.788;2023-06-14T13:50:49;4.45;;;4.07;;
24663;SDS011;12791;50.992;13.788;2023-06-14T13:53:16;5.45;;;3.92;;
24663;SDS011;12791;50.992;13.788;2023-06-14T13:55:42;4.15;;;3.75;;
24663;SDS011;12791;50.992;13.788;2023-06-14T13:58:10;4.40;;;4.03;;
24663;SDS011;12791;50.992;13.788;2023-06-14T14:00:37;4.78;;;3.83;;
24663;SDS011;12791;50.992;13.788;2023-06-14T14:03:05;4.10;;;3.70;;
24663;SDS011;12791;50.992;13.788;2023-06-14T14:05:33;3.70;;;3.50;;
24663;SDS011;12791;50.992;13.788;2023-06-14T14:08:00;3.25;;;3.05;;
24663;SDS011;12791;50.992;13.788;2023-06-14T14:10:26;3.50;;;3.30;;
24663;SDS011;12791;50.992;13.788;2023-06-14T14:12:53;4.40;;;3.00;;
24663;SDS011;12791;50.992;13.788;2023-06-14T14:15:20;3.17;;;2.72;;
24663;SDS011;12791;50.992;13.788;2023-06-14T14:17:46;3.65;;;2.53;;
24663;SDS011;12791;50.992;13.788;2023-06-14T14:20:13;5.00;;;2.47;;
24663;SDS011;12791;50.992;13.788;2023-06-14T14:22:42;4.20;;;2.65;;
24663;SDS011;12791;50.992;13.788;2023-06-14T14:25:08;3.20;;;2.83;;
24663;SDS011;12791;50.992;13.788;2023-06-14T14:27:35;5.60;;;2.65;;
24663;SDS011;12791;50.992;13.788;2023-06-14T14:30:02;3.70;;;2.28;;
24663;SDS011;12791;50.992;13.788;2023-06-14T14:32:29;3.53;;;3.15;;
24663;SDS011;12791;50.992;13.788;2023-06-14T14:34:56;2.45;;;2.35;;
24663;SDS011;12791;50.992;13.788;2023-06-14T14:37:23;3.78;;;2.28;;
24663;SDS011;12791;50.992;13.788;2023-06-14T14:39:51;3.00;;;2.47;;